Verona, PA (15147)

6:50 AM EDT on April 23, 2017 (GMT -0400)
Ridge | | Change Station

Elev 860 ft 40.51 °N, 79.84 °W | Updated 23 seconds ago

Clear
Clear
34.0 °F
Feels Like 34 °F
N
0.0
Wind Variable Wind from ESE

Today
High -- | Low -- °F
--% Chance of Precip.
Yesterday
High -- | Low -- °F
Precip. -- in
Pressure 30.10 in
Visibility 10.0 miles
Clouds Clear
Windchill 34 °F
Dew Point 34 °F
Humidity 99%
Rainfall 0.00 in
Snow Depth Not available.
6:28 AM 8:07 PM
Waning Crescent, 13% visible
METAR KAGC 230953Z 05004KT 10SM CLR 04/00 A3007 RMK AO2 SLP193 T00440000
Pressure 30.10 in
Visibility 10.0 miles
Clouds Clear
Windchill 34 °F
Dew Point 34 °F
Humidity 99%
Rainfall 0.00 in
Snow Depth Not available.
6:28 AM 8:07 PM
Waning Crescent, 13% visible
METAR KAGC 230953Z 05004KT 10SM CLR 04/00 A3007 RMK AO2 SLP193 T00440000

Get Severe Weather Alerts

Thanks for signing up!

Be on the lookout for a verification email in your inbox.

You'll start receiving the daily forecast at 8 AM.

×

10-Day Weather Forecast

Almanac

Astronomy

Apr. 23, 2017 Rise Set
Actual Time
Civil Twilight
Nautical Twilight
Astronomical Twilight
Moon
Length of Visible Light
Length of Day
Tomorrow will be .
, % of the Moon is Illuminated

Today's Extremes

State Highs State Lows

Community

WunderPhotos

WunderBlog® & News

Nearby

Air Quality

  Air Quality AQ Index Pollutant
Not available.

Snow Depth

Station Depth Elevation

Earthquake Activity

City Distance Mag. Time & Date
Minimum magnitude displayed is 2.5.

Coastal Water Temperatures

Place Temperature

Stations

Nearby Weather Stations

Station Location Temp. Windchill Dew Point Humidity Wind Precip. Elev Updated Type
                   

Watches & Warnings

There are currently no watches in effect.